Time;durP1;ratioP1;P1;durP2;ratioP2;P2;SDS_P1;SDS_P2;PMS_P1;PMS_P2;Temp;Humidity;BMP_temperature;BMP_pressure;BME280_temperature;BME280_humidity;BME280_pressure;Samples;Min_cycle;Max_cycle;Signal;HPM_P1;HPM_P2
2023/11/02 00:00:29;;;;;;;;;;;;;;;11.99;60.30;98228.22;1088176;47;924;-79
2023/11/02 00:01:35;;;;;;;;;;;;;;;11.99;60.29;98229.06;1088171;47;974;-78
2023/11/02 00:02:35;;;;;;;;;;;;;;;11.95;60.41;98221.59;1088285;54;993;-79
2023/11/02 00:03:41;;;;;;;;;;;;;;;12.00;60.19;98221.84;1088255;47;963;-80
2023/11/02 00:04:41;;;;;;;;;;;;;;;12.04;60.24;98222.25;1088367;54;1007;-80
2023/11/02 00:06:02;;;;;;;;;;;;;;;12.07;59.78;98216.50;1088009;47;973;-80
2023/11/02 00:07:02;;;;;;;;;;;;;;;12.08;59.89;98208.28;1088150;47;928;-81
2023/11/02 00:08:08;;;;;;;;;;;;;;;12.13;59.47;98205.00;1088171;54;1187;-79
2023/11/02 00:09:23;;;;;;;;;;;;;;;12.14;59.59;98198.63;1088292;54;1005;-78
2023/11/02 00:10:27;;;;;;;;;;;;;;;12.13;59.51;98194.28;1088520;54;969;-79
2023/11/02 00:11:43;;;;;;;;;;;;;;;12.14;59.53;98191.38;1088267;47;891;-80
2023/11/02 00:12:49;;;;;;;;;;;;;;;12.16;59.08;98194.69;1088163;47;999;-80
2023/11/02 00:13:50;;;;;;;;;;;;;;;12.17;59.06;98199.03;1088128;47;956;-81
2023/11/02 00:14:54;;;;;;;;;;;;;;;12.17;58.98;98193.69;1088255;54;943;-79
2023/11/02 00:15:54;;;;;;;;;;;;;;;12.21;59.08;98195.97;1088277;54;1003;-80
2023/11/02 00:16:56;;;;;;;;;;;;;;;12.21;58.76;98202.13;1088258;54;930;-80
2023/11/02 00:18:22;;;;;;;;;;;;;;;12.21;59.04;98202.13;1088406;47;1864;-82
2023/11/02 00:19:28;;;;;;;;;;;;;;;12.24;58.84;98191.03;1088456;47;921;-82
2023/11/02 00:20:38;;;;;;;;;;;;;;;12.23;58.73;98178.66;1088462;54;1008;-81
2023/11/02 00:21:50;;;;;;;;;;;;;;;12.26;58.69;98172.91;1088502;47;999;-84
2023/11/02 00:23:15;;;;;;;;;;;;;;;12.24;58.71;98174.94;1088720;54;901;-83
2023/11/02 00:24:17;;;;;;;;;;;;;;;12.26;58.38;98167.53;1088544;47;942;-81
2023/11/02 00:25:31;;;;;;;;;;;;;;;12.24;58.21;98164.25;1088579;47;1004;-83
2023/11/02 00:26:37;;;;;;;;;;;;;;;12.25;58.28;98163.22;1088506;47;1020;-82
2023/11/02 00:27:44;;;;;;;;;;;;;;;12.28;58.47;98154.75;1088444;47;1353;-83
2023/11/02 00:28:50;;;;;;;;;;;;;;;12.29;57.91;98161.75;1088187;47;962;-79
2023/11/02 00:29:51;;;;;;;;;;;;;;;12.20;58.45;98151.44;1088127;54;1023;-80
2023/11/02 00:31:01;;;;;;;;;;;;;;;12.19;58.06;98155.97;1088418;47;1179;-79
2023/11/02 00:32:03;;;;;;;;;;;;;;;12.14;58.30;98143.16;1088384;54;1803;-79
2023/11/02 00:33:04;;;;;;;;;;;;;;;12.13;58.39;98151.41;1088491;54;1117;-81
2023/11/02 00:34:07;;;;;;;;;;;;;;;12.13;58.02;98140.72;1088505;54;987;-81
2023/11/02 00:35:08;;;;;;;;;;;;;;;12.11;58.30;98148.94;1088084;54;966;-80
2023/11/02 00:36:12;;;;;;;;;;;;;;;12.07;57.83;98146.88;1088186;54;951;-80
2023/11/02 00:37:12;;;;;;;;;;;;;;;12.13;57.74;98149.59;1088116;47;997;-79
2023/11/02 00:38:17;;;;;;;;;;;;;;;12.17;57.64;98142.78;1087788;47;1862;-80
2023/11/02 00:39:21;;;;;;;;;;;;;;;12.20;57.93;98144.22;1088022;54;1099;-80
2023/11/02 00:40:22;;;;;;;;;;;;;;;12.17;57.90;98133.94;1088169;54;1090;-79
2023/11/02 00:41:23;;;;;;;;;;;;;;;12.21;57.37;98119.09;1088167;47;1046;-79
2023/11/02 00:42:26;;;;;;;;;;;;;;;12.24;57.57;98121.38;1088071;47;984;-80
2023/11/02 00:43:28;;;;;;;;;;;;;;;12.22;57.61;98109.22;1087961;54;936;-79
2023/11/02 00:44:34;;;;;;;;;;;;;;;12.26;57.14;98111.28;1088039;47;904;-79
2023/11/02 00:45:38;;;;;;;;;;;;;;;12.29;57.34;98113.53;1088009;47;894;-79
2023/11/02 00:46:43;;;;;;;;;;;;;;;12.27;57.26;98110.25;1088004;47;973;-80
2023/11/02 00:47:44;;;;;;;;;;;;;;;12.29;57.15;98108.19;1087769;47;1365;-79
2023/11/02 00:48:47;;;;;;;;;;;;;;;12.31;57.46;98106.13;1088041;47;958;-80
2023/11/02 00:49:49;;;;;;;;;;;;;;;12.30;57.25;98096.44;1088092;54;1067;-79
2023/11/02 00:51:07;;;;;;;;;;;;;;;12.31;56.52;98090.06;1088074;47;953;-80
2023/11/02 00:52:10;;;;;;;;;;;;;;;12.33;56.74;98104.09;1087959;47;835;-80
2023/11/02 00:53:11;;;;;;;;;;;;;;;12.33;56.89;98096.03;1088022;54;1136;-80
2023/11/02 00:54:36;;;;;;;;;;;;;;;12.40;56.75;98089.84;1087984;54;1080;-80
2023/11/02 00:55:37;;;;;;;;;;;;;;;12.40;56.42;98085.34;1088004;47;990;-79
2023/11/02 00:56:41;;;;;;;;;;;;;;;12.41;56.24;98076.28;1088007;54;1050;-79
2023/11/02 00:57:41;;;;;;;;;;;;;;;12.41;56.21;98062.03;1087962;47;1314;-80
2023/11/02 00:58:44;;;;;;;;;;;;;;;12.43;56.30;98065.34;1087996;54;1857;-79
2023/11/02 00:59:51;;;;;;;;;;;;;;;12.43;56.21;98070.69;1088080;54;910;-79
2023/11/02 01:01:00;;;;;;;;;;;;;;;12.42;56.28;98069.84;1088052;47;963;-80
2023/11/02 01:02:05;;;;;;;;;;;;;;;12.44;55.85;98067.81;1088008;47;1000;-79
2023/11/02 01:03:06;;;;;;;;;;;;;;;12.44;55.89;98064.31;1088041;54;986;-79
2023/11/02 01:04:30;;;;;;;;;;;;;;;12.48;55.95;98062.84;1088022;47;955;-79
2023/11/02 01:05:31;;;;;;;;;;;;;;;12.51;55.96;98070.50;1088064;54;965;-79
2023/11/02 01:06:35;;;;;;;;;;;;;;;12.51;56.11;98069.69;1087988;47;952;-80
2023/11/02 01:07:37;;;;;;;;;;;;;;;12.51;56.07;98062.47;1087885;54;1376;-80
2023/11/02 01:08:37;;;;;;;;;;;;;;;12.54;55.72;98056.69;1087986;47;900;-79
2023/11/02 01:09:49;;;;;;;;;;;;;;;12.56;55.92;98043.91;1087899;54;979;-80
2023/11/02 01:10:50;;;;;;;;;;;;;;;12.55;55.74;98052.16;1088038;47;943;-80
2023/11/02 01:11:53;;;;;;;;;;;;;;;12.55;55.64;98047.63;1088043;54;877;-80
2023/11/02 01:12:54;;;;;;;;;;;;;;;12.54;55.34;98037.94;1088090;54;1009;-79
2023/11/02 01:13:56;;;;;;;;;;;;;;;12.56;55.61;98037.72;1088105;47;987;-80
2023/11/02 01:15:03;;;;;;;;;;;;;;;12.56;55.56;98049.28;1087956;54;973;-80
2023/11/02 01:16:07;;;;;;;;;;;;;;;12.55;55.58;98034.22;1087999;47;963;-79
2023/11/02 01:17:11;;;;;;;;;;;;;;;12.52;55.54;98031.94;1088027;47;905;-80
2023/11/02 01:18:13;;;;;;;;;;;;;;;12.49;55.74;98037.72;1088144;54;1872;-80
2023/11/02 01:19:47;;;;;;;;;;;;;;;12.53;55.73;98030.91;1088437;54;983;-79
2023/11/02 01:20:56;;;;;;;;;;;;;;;12.55;55.55;98034.22;1088289;47;896;-79
2023/11/02 01:22:00;;;;;;;;;;;;;;;12.55;55.78;98028.88;1088211;54;1137;-79
2023/11/02 01:23:02;;;;;;;;;;;;;;;12.58;55.77;98030.31;1088438;54;1082;-79
2023/11/02 01:24:10;;;;;;;;;;;;;;;12.57;55.45;98028.66;1088281;54;1102;-79
2023/11/02 01:25:12;;;;;;;;;;;;;;;12.59;55.55;98026.59;1088327;54;1105;-79
2023/11/02 01:26:30;;;;;;;;;;;;;;;12.60;55.64;98031.72;1088478;54;891;-78
2023/11/02 01:27:31;;;;;;;;;;;;;;;12.59;55.67;98021.22;1088375;54;1370;-79
2023/11/02 01:28:50;;;;;;;;;;;;;;;12.58;55.84;98030.31;1088293;47;1090;-79
2023/11/02 01:29:51;;;;;;;;;;;;;;;12.54;55.47;98027.22;1088345;47;927;-79
2023/11/02 01:31:13;;;;;;;;;;;;;;;12.53;55.75;98016.69;1087567;54;1109;-79
2023/11/02 01:32:17;;;;;;;;;;;;;;;12.49;55.36;98013.59;1088471;54;1066;-79
2023/11/02 01:33:36;;;;;;;;;;;;;;;12.54;55.50;98011.13;1088692;54;1054;-79
2023/11/02 01:34:40;;;;;;;;;;;;;;;12.53;55.58;98001.44;1088336;47;1027;-79
2023/11/02 01:35:41;;;;;;;;;;;;;;;12.50;55.48;98001.84;1088475;54;1085;-79
2023/11/02 01:36:44;;;;;;;;;;;;;;;12.51;55.22;97991.97;1088326;47;887;-80
2023/11/02 01:37:48;;;;;;;;;;;;;;;12.42;55.38;97985.97;1088369;54;1296;-79
2023/11/02 01:39:07;;;;;;;;;;;;;;;12.45;55.29;97991.75;1088236;47;1848;-79
2023/11/02 01:40:12;;;;;;;;;;;;;;;12.49;55.47;97989.47;1088369;47;951;-80
2023/11/02 01:41:18;;;;;;;;;;;;;;;12.47;55.01;97986.16;1088319;47;912;-80
2023/11/02 01:42:22;;;;;;;;;;;;;;;12.44;54.85;97979.38;1088366;47;972;-80
2023/11/02 01:43:26;;;;;;;;;;;;;;;12.47;54.89;97970.09;1088423;54;1058;-79
2023/11/02 01:44:32;;;;;;;;;;;;;;;12.46;54.67;97971.16;1088413;47;974;-80
2023/11/02 01:45:39;;;;;;;;;;;;;;;12.47;54.80;97967.41;1088488;54;982;-80
2023/11/02 01:46:44;;;;;;;;;;;;;;;12.51;54.82;97962.50;1088366;47;899;-80
2023/11/02 01:48:06;;;;;;;;;;;;;;;12.50;54.82;97958.97;1088290;47;1335;-79
2023/11/02 01:49:13;;;;;;;;;;;;;;;12.48;54.25;97956.50;1088396;54;1053;-80
2023/11/02 01:50:18;;;;;;;;;;;;;;;12.50;54.30;97964.31;1088352;47;901;-80
2023/11/02 01:51:26;;;;;;;;;;;;;;;12.51;54.31;97960.63;1088450;54;1010;-80
2023/11/02 01:52:37;;;;;;;;;;;;;;;12.52;54.13;97954.22;1088342;47;973;-80
2023/11/02 01:53:46;;;;;;;;;;;;;;;12.51;54.18;97949.09;1088308;47;994;-80
2023/11/02 01:54:47;;;;;;;;;;;;;;;12.45;53.92;97940.03;1088422;47;1011;-80
2023/11/02 01:56:12;;;;;;;;;;;;;;;12.48;53.95;97934.22;1088317;54;961;-80
2023/11/02 01:57:19;;;;;;;;;;;;;;;12.48;53.85;97929.72;1088558;46;1185;-79
2023/11/02 01:58:28;;;;;;;;;;;;;;;12.48;54.18;97923.50;1088686;54;1844;-79
2023/11/02 01:59:32;;;;;;;;;;;;;;;12.48;54.06;97912.78;1088580;54;1028;-81
2023/11/02 02:00:39;;;;;;;;;;;;;;;12.46;53.98;97909.53;1088680;54;1004;-80
2023/11/02 02:01:42;;;;;;;;;;;;;;;12.49;53.88;97906.41;1088732;47;994;-80
2023/11/02 02:02:49;;;;;;;;;;;;;;;12.46;53.68;97909.53;1088687;47;968;-80
2023/11/02 02:03:56;;;;;;;;;;;;;;;12.44;54.26;97911.56;1088738;54;1097;-80
2023/11/02 02:05:04;;;;;;;;;;;;;;;12.47;54.05;97911.13;1088622;54;1037;-79
2023/11/02 02:06:09;;;;;;;;;;;;;;;12.43;53.92;97905.38;1088704;54;1069;-79
2023/11/02 02:07:19;;;;;;;;;;;;;;;12.48;53.92;97907.44;1088730;54;918;-81
2023/11/02 02:08:24;;;;;;;;;;;;;;;12.49;53.76;97903.72;1088683;47;1502;-79
2023/11/02 02:09:32;;;;;;;;;;;;;;;12.51;53.75;97914.25;1088645;54;1021;-80
2023/11/02 02:10:42;;;;;;;;;;;;;;;12.47;53.80;97911.13;1088685;54;1008;-80
2023/11/02 02:11:53;;;;;;;;;;;;;;;12.48;53.65;97900.22;1088665;54;1019;-79
2023/11/02 02:13:03;;;;;;;;;;;;;;;12.47;53.59;97901.25;1088622;54;983;-80
2023/11/02 02:14:13;;;;;;;;;;;;;;;12.51;53.30;97898.97;1088174;47;1528;-79
2023/11/02 02:15:19;;;;;;;;;;;;;;;12.50;53.26;97902.69;1088386;54;1040;-79
2023/11/02 02:16:28;;;;;;;;;;;;;;;12.47;53.52;97901.25;1088298;47;1037;-79
2023/11/02 02:17:35;;;;;;;;;;;;;;;12.41;53.42;97902.09;1088616;54;1382;-80
2023/11/02 02:18:44;;;;;;;;;;;;;;;12.47;53.29;97900.41;1088256;47;1848;-80
2023/11/02 02:19:59;;;;;;;;;;;;;;;12.47;53.32;97900.41;1088657;54;999;-80
2023/11/02 02:21:10;;;;;;;;;;;;;;;12.50;53.19;97893.84;1088297;54;1001;-80
2023/11/02 02:22:18;;;;;;;;;;;;;;;12.50;52.75;97900.00;1088185;47;957;-80
2023/11/02 02:23:27;;;;;;;;;;;;;;;12.49;53.11;97893.00;1088322;54;1091;-80
2023/11/02 02:24:42;;;;;;;;;;;;;;;12.52;53.13;97887.22;1088324;54;983;-80
2023/11/02 02:26:11;;;;;;;;;;;;;;;12.48;52.77;97888.66;1088212;47;924;-79
2023/11/02 02:27:26;;;;;;;;;;;;;;;12.51;53.01;97877.53;1088141;54;1060;-79
2023/11/02 02:28:44;;;;;;;;;;;;;;;12.53;52.98;97872.81;1088307;54;966;-79
2023/11/02 02:30:11;;;;;;;;;;;;;;;12.50;52.95;97867.84;1088303;54;1009;-79
2023/11/02 02:31:22;;;;;;;;;;;;;;;12.53;53.08;97858.56;1087947;47;1121;-79
2023/11/02 02:32:35;;;;;;;;;;;;;;;12.52;52.82;97860.44;1088359;54;1058;-79
2023/11/02 02:33:45;;;;;;;;;;;;;;;12.53;53.00;97853.19;1088350;54;1085;-79
2023/11/02 02:34:59;;;;;;;;;;;;;;;12.53;52.99;97843.31;1088254;47;941;-79
2023/11/02 02:36:01;;;;;;;;;;;;;;;12.56;53.25;97839.38;1088328;54;973;-78
2023/11/02 02:37:09;;;;;;;;;;;;;;;12.54;52.81;97844.97;1088220;54;1007;-80
2023/11/02 02:38:16;;;;;;;;;;;;;;;12.56;52.86;97837.56;1088229;47;1241;-78
2023/11/02 02:39:21;;;;;;;;;;;;;;;12.60;53.00;97838.75;1088162;47;1857;-79
2023/11/02 02:40:26;;;;;;;;;;;;;;;12.55;53.10;97843.94;1088338;46;995;-79
2023/11/02 02:41:33;;;;;;;;;;;;;;;12.47;53.17;97841.47;1088284;54;953;-79
2023/11/02 02:42:34;;;;;;;;;;;;;;;12.38;53.78;97848.09;1088310;46;883;-79
2023/11/02 02:43:41;;;;;;;;;;;;;;;12.27;54.16;97846.88;1088544;54;968;-83
2023/11/02 02:44:46;;;;;;;;;;;;;;;12.27;54.56;97850.41;1088066;47;984;-81
2023/11/02 02:45:51;;;;;;;;;;;;;;;12.22;54.60;97844.03;1088587;47;955;-82
2023/11/02 02:46:56;;;;;;;;;;;;;;;12.16;54.92;97843.81;1088398;54;1035;-82
2023/11/02 02:48:01;;;;;;;;;;;;;;;12.20;54.95;97828.16;1087307;47;1386;-82
2023/11/02 02:49:02;;;;;;;;;;;;;;;12.23;54.71;97824.25;1088577;54;1117;-81
2023/11/02 02:50:09;;;;;;;;;;;;;;;12.18;55.00;97827.56;1088440;47;1147;-80
2023/11/02 02:51:12;;;;;;;;;;;;;;;12.12;55.07;97823.00;1088267;47;1197;-82
2023/11/02 02:52:13;;;;;;;;;;;;;;;12.08;55.29;97821.81;1088394;47;957;-81
2023/11/02 02:53:19;;;;;;;;;;;;;;;12.07;55.37;97812.13;1088424;54;1037;-82
2023/11/02 02:54:21;;;;;;;;;;;;;;;12.09;55.24;97815.41;1088536;54;932;-82
2023/11/02 02:55:27;;;;;;;;;;;;;;;12.10;55.47;97812.53;1088457;54;1086;-81
2023/11/02 02:56:28;;;;;;;;;;;;;;;12.09;55.20;97818.09;1088445;54;960;-82
2023/11/02 02:57:31;;;;;;;;;;;;;;;12.09;55.56;97807.38;1088166;46;1477;-82
2023/11/02 02:58:36;;;;;;;;;;;;;;;12.06;55.64;97803.25;1087972;47;938;-81
2023/11/02 02:59:39;;;;;;;;;;;;;;;12.04;55.49;97793.78;1088357;54;950;-81
2023/11/02 03:00:44;;;;;;;;;;;;;;;11.98;55.79;97798.97;1088394;54;972;-82
2023/11/02 03:01:46;;;;;;;;;;;;;;;11.95;55.59;97793.16;1088299;46;867;-81
2023/11/02 03:02:50;;;;;;;;;;;;;;;12.00;55.79;97794.19;1088327;54;961;-81
2023/11/02 03:03:50;;;;;;;;;;;;;;;12.06;55.21;97791.72;1088208;47;1393;-81
2023/11/02 03:04:55;;;;;;;;;;;;;;;12.08;55.14;97784.31;1088236;54;938;-81
2023/11/02 03:05:59;;;;;;;;;;;;;;;12.06;54.87;97789.03;1088098;54;975;-82
2023/11/02 03:07:02;;;;;;;;;;;;;;;12.09;54.98;97786.78;1088206;54;1353;-82
2023/11/02 03:08:08;;;;;;;;;;;;;;;12.06;55.28;97792.53;1088251;54;1377;-82
2023/11/02 03:09:15;;;;;;;;;;;;;;;12.11;55.22;97786.56;1088321;54;994;-80
2023/11/02 03:10:17;;;;;;;;;;;;;;;12.12;54.69;97785.53;1088335;54;1012;-81
2023/11/02 03:11:21;;;;;;;;;;;;;;;12.11;54.36;97773.16;1088274;54;971;-82
2023/11/02 03:12:25;;;;;;;;;;;;;;;12.14;54.64;97773.56;1088212;47;907;-82
2023/11/02 03:13:30;;;;;;;;;;;;;;;12.15;54.49;97771.72;1088335;54;982;-82
2023/11/02 03:14:33;;;;;;;;;;;;;;;12.18;54.74;97757.91;1088380;47;926;-81
2023/11/02 03:15:37;;;;;;;;;;;;;;;12.13;54.64;97769.25;1088490;54;924;-82
2023/11/02 03:16:38;;;;;;;;;;;;;;;12.15;54.59;97774.41;1088556;54;984;-82
2023/11/02 03:17:56;;;;;;;;;;;;;;;12.19;54.43;97767.56;1088382;46;1311;-81
2023/11/02 03:18:58;;;;;;;;;;;;;;;12.16;54.76;97770.69;1088429;54;1889;-80
2023/11/02 03:19:59;;;;;;;;;;;;;;;12.18;54.63;97784.69;1088348;54;971;-82
2023/11/02 03:21:05;;;;;;;;;;;;;;;12.07;54.53;97770.09;1088419;47;912;-81
2023/11/02 03:22:07;;;;;;;;;;;;;;;12.12;54.77;97769.44;1088349;46;1014;-82
2023/11/02 03:23:19;;;;;;;;;;;;;;;12.11;54.78;97757.94;1088435;47;856;-82
2023/11/02 03:24:25;;;;;;;;;;;;;;;11.98;54.94;97757.97;1088647;54;889;-81
2023/11/02 03:25:32;;;;;;;;;;;;;;;11.95;54.95;97763.72;1088234;54;947;-82
2023/11/02 03:26:38;;;;;;;;;;;;;;;11.95;54.92;97763.72;1088307;47;992;-82
2023/11/02 03:27:45;;;;;;;;;;;;;;;11.81;55.35;97769.09;1088359;54;1350;-82
2023/11/02 03:28:50;;;;;;;;;;;;;;;11.70;55.88;97778.59;1088375;47;966;-81
2023/11/02 03:30:21;;;;;;;;;;;;;;;11.74;56.05;97772.78;1088331;46;1069;-80
2023/11/02 03:31:29;;;;;;;;;;;;;;;11.64;56.52;97790.09;1088346;46;1127;-80
2023/11/02 03:32:36;;;;;;;;;;;;;;;11.65;56.95;97777.56;1087980;54;1161;-83
2023/11/02 03:33:44;;;;;;;;;;;;;;;11.63;56.66;97780.41;1087996;54;1067;-80
2023/11/02 03:34:48;;;;;;;;;;;;;;;11.74;56.70;97775.47;1088051;54;1094;-80
2023/11/02 03:35:59;;;;;;;;;;;;;;;11.62;56.83;97796.69;1087983;47;995;-80
2023/11/02 03:37:08;;;;;;;;;;;;;;;11.51;57.63;97811.53;1087737;54;1090;-80
2023/11/02 03:38:18;;;;;;;;;;;;;;;11.54;57.55;97805.75;1087355;47;1389;-80
2023/11/02 03:39:23;;;;;;;;;;;;;;;11.43;58.20;97801.84;1087506;47;1846;-81
2023/11/02 03:40:30;;;;;;;;;;;;;;;11.50;58.02;97796.50;1087392;54;1179;-80
2023/11/02 03:41:41;;;;;;;;;;;;;;;11.38;58.11;97794.44;1086870;54;1074;-80
2023/11/02 03:42:48;;;;;;;;;;;;;;;11.37;58.39;97797.31;1087028;47;1352;-79
2023/11/02 03:43:55;;;;;;;;;;;;;;;11.37;58.54;97797.31;1086811;54;1102;-79
2023/11/02 03:45:01;;;;;;;;;;;;;;;11.41;58.52;97803.06;1087337;54;1088;-81
2023/11/02 03:46:18;;;;;;;;;;;;;;;11.42;59.16;97794.84;1087180;47;1189;-80
2023/11/02 03:47:26;;;;;;;;;;;;;;;11.44;59.42;97797.28;1087113;47;1085;-81
2023/11/02 03:48:36;;;;;;;;;;;;;;;11.45;59.74;97798.94;1087429;47;943;-80
2023/11/02 03:49:40;;;;;;;;;;;;;;;11.46;59.62;97795.25;1087396;47;1624;-80
2023/11/02 03:50:49;;;;;;;;;;;;;;;11.48;59.42;97795.88;1086983;47;1779;-79
2023/11/02 03:51:58;;;;;;;;;;;;;;;11.52;59.74;97781.06;1086838;47;1066;-80
2023/11/02 03:53:07;;;;;;;;;;;;;;;11.54;59.91;97768.28;1087385;47;1174;-80
2023/11/02 03:54:14;;;;;;;;;;;;;;;11.53;59.98;97777.34;1086981;47;1231;-79
2023/11/02 03:55:28;;;;;;;;;;;;;;;11.58;59.75;97757.97;1087192;54;1019;-80
2023/11/02 03:56:36;;;;;;;;;;;;;;;11.63;60.34;97750.97;1087047;54;1160;-80
2023/11/02 03:57:41;;;;;;;;;;;;;;;11.63;60.95;97750.97;1086817;54;1282;-80
2023/11/02 03:58:49;;;;;;;;;;;;;;;11.59;62.39;97744.41;1086444;47;939;-80
2023/11/02 03:59:57;;;;;;;;;;;;;;;11.58;61.26;97745.44;1086316;47;1879;-81
2023/11/02 04:01:05;;;;;;;;;;;;;;;11.49;61.59;97749.34;1086402;47;980;-80
2023/11/02 04:02:07;;;;;;;;;;;;;;;11.52;61.40;97736.38;1086446;54;1501;-80
2023/11/02 04:03:10;;;;;;;;;;;;;;;11.59;61.12;97731.03;1086058;47;1022;-79
2023/11/02 04:04:19;;;;;;;;;;;;;;;11.57;62.70;97724.25;1085805;47;962;-80
2023/11/02 04:05:21;;;;;;;;;;;;;;;11.54;61.58;97714.75;1084978;47;1735;-80
2023/11/02 04:06:33;;;;;;;;;;;;;;;11.55;61.72;97724.44;1084988;47;1637;-80
2023/11/02 04:07:44;;;;;;;;;;;;;;;11.52;62.08;97716.84;1085039;54;1424;-79
2023/11/02 04:08:52;;;;;;;;;;;;;;;11.53;62.29;97711.28;1085457;47;1040;-78
2023/11/02 04:09:54;;;;;;;;;;;;;;;11.50;62.70;97706.34;1085190;47;1000;-78
2023/11/02 04:10:59;;;;;;;;;;;;;;;11.52;62.71;97706.16;1085026;47;1122;-79
2023/11/02 04:12:04;;;;;;;;;;;;;;;11.45;63.52;97699.97;1084824;47;1085;-79
2023/11/02 04:13:07;;;;;;;;;;;;;;;11.41;63.29;97693.41;1084619;47;1285;-78
2023/11/02 04:14:14;;;;;;;;;;;;;;;11.39;64.25;97691.75;1084171;47;1141;-79
2023/11/02 04:15:15;;;;;;;;;;;;;;;11.32;65.25;97698.13;1085002;47;1198;-79
2023/11/02 04:16:16;;;;;;;;;;;;;;;11.23;65.81;97686.84;1084829;47;1594;-80
2023/11/02 04:17:19;;;;;;;;;;;;;;;11.23;64.93;97684.16;1085070;47;1201;-79
2023/11/02 04:18:21;;;;;;;;;;;;;;;11.23;64.80;97671.59;1085027;54;1138;-78
2023/11/02 04:19:24;;;;;;;;;;;;;;;11.17;65.93;97666.25;1084932;47;1879;-79
2023/11/02 04:20:25;;;;;;;;;;;;;;;11.04;66.72;97657.22;1085427;54;1122;-79
2023/11/02 04:21:28;;;;;;;;;;;;;;;11.04;66.79;97643.84;1085076;47;1109;-80
2023/11/02 04:22:29;;;;;;;;;;;;;;;11.03;67.05;97634.19;1085353;54;1184;-80
2023/11/02 04:23:32;;;;;;;;;;;;;;;10.90;67.90;97634.19;1085263;54;1059;-79
2023/11/02 04:24:35;;;;;;;;;;;;;;;10.92;67.84;97626.78;1084970;47;1162;-79
2023/11/02 04:25:38;;;;;;;;;;;;;;;10.92;67.95;97621.44;1085120;47;1053;-81
2023/11/02 04:26:39;;;;;;;;;;;;;;;10.90;67.37;97624.31;1085204;47;1105;-79
2023/11/02 04:27:43;;;;;;;;;;;;;;;10.92;67.91;97610.75;1084780;47;1315;-79
2023/11/02 04:28:43;;;;;;;;;;;;;;;10.96;67.67;97605.81;1085194;54;1349;-79
2023/11/02 04:29:47;;;;;;;;;;;;;;;10.97;67.74;97602.91;1085009;46;1000;-79
2023/11/02 04:30:47;;;;;;;;;;;;;;;10.96;67.57;97597.78;1084754;47;1140;-79
2023/11/02 04:31:51;;;;;;;;;;;;;;;10.98;67.51;97587.72;1084253;47;1166;-79
2023/11/02 04:32:52;;;;;;;;;;;;;;;10.96;67.22;97585.22;1084996;54;1399;-79
2023/11/02 04:33:52;;;;;;;;;;;;;;;10.94;67.35;97576.63;1084920;54;1157;-79
2023/11/02 04:34:56;;;;;;;;;;;;;;;10.90;67.20;97564.69;1084965;54;1067;-79
2023/11/02 04:35:58;;;;;;;;;;;;;;;10.83;66.78;97554.00;1085176;54;1055;-79
2023/11/02 04:37:01;;;;;;;;;;;;;;;10.87;66.30;97543.72;1084872;54;1054;-79
2023/11/02 04:38:05;;;;;;;;;;;;;;;10.87;66.54;97544.53;1084923;47;1386;-79
2023/11/02 04:39:08;;;;;;;;;;;;;;;10.91;66.62;97545.75;1084714;47;1190;-79
2023/11/02 04:40:12;;;;;;;;;;;;;;;10.95;66.90;97554.22;1084737;47;1216;-79
2023/11/02 04:41:15;;;;;;;;;;;;;;;10.92;67.35;97551.94;1084920;54;1066;-79
2023/11/02 04:42:17;;;;;;;;;;;;;;;10.94;67.26;97544.53;1084781;47;1146;-79
2023/11/02 04:43:20;;;;;;;;;;;;;;;11.00;67.03;97549.03;1084604;47;1125;-78
2023/11/02 04:44:21;;;;;;;;;;;;;;;11.04;66.82;97550.28;1084773;54;1202;-79
2023/11/02 04:45:24;;;;;;;;;;;;;;;11.06;66.62;97548.19;1084644;54;1148;-79
2023/11/02 04:46:24;;;;;;;;;;;;;;;11.06;66.50;97544.72;1084916;54;1004;-79
2023/11/02 04:47:28;;;;;;;;;;;;;;;11.10;66.71;97537.09;1084818;54;1357;-79
2023/11/02 04:48:28;;;;;;;;;;;;;;;11.09;66.66;97530.94;1084895;54;1502;-79
2023/11/02 04:49:32;;;;;;;;;;;;;;;11.10;66.38;97526.41;1084636;47;1256;-79
2023/11/02 04:50:32;;;;;;;;;;;;;;;11.10;66.52;97524.53;1084495;54;1007;-79
2023/11/02 04:51:33;;;;;;;;;;;;;;;11.15;66.48;97521.22;1084847;47;1102;-79
2023/11/02 04:52:37;;;;;;;;;;;;;;;11.13;66.93;97520.66;1085067;47;1166;-79
2023/11/02 04:53:38;;;;;;;;;;;;;;;11.11;67.01;97512.00;1085123;54;1146;-79
2023/11/02 04:54:41;;;;;;;;;;;;;;;11.13;66.64;97509.94;1085219;47;1073;-79
2023/11/02 04:55:44;;;;;;;;;;;;;;;11.13;66.61;97505.41;1085350;47;1674;-79
2023/11/02 04:56:45;;;;;;;;;;;;;;;11.16;66.94;97509.50;1085505;54;1159;-79
2023/11/02 04:57:48;;;;;;;;;;;;;;;11.17;66.74;97503.97;1085232;47;1383;-79
2023/11/02 04:58:49;;;;;;;;;;;;;;;11.18;66.46;97507.44;1084913;54;1031;-79
2023/11/02 04:59:53;;;;;;;;;;;;;;;11.20;66.49;97506.19;1085051;47;1872;-80
2023/11/02 05:00:54;;;;;;;;;;;;;;;11.23;66.60;97494.28;1085338;54;1205;-79
2023/11/02 05:01:57;;;;;;;;;;;;;;;11.22;66.64;97484.63;1085068;47;1146;-79
2023/11/02 05:03:00;;;;;;;;;;;;;;;11.23;66.12;97472.88;1085370;54;1165;-79
2023/11/02 05:04:01;;;;;;;;;;;;;;;11.23;66.10;97475.56;1085391;54;1208;-79
2023/11/02 05:05:02;;;;;;;;;;;;;;;11.23;66.68;97478.25;1085220;47;1594;-79
2023/11/02 05:06:06;;;;;;;;;;;;;;;11.24;66.44;97469.19;1085173;47;1086;-79
2023/11/02 05:07:06;;;;;;;;;;;;;;;11.23;66.63;97471.03;1085015;54;1436;-78
2023/11/02 05:08:10;;;;;;;;;;;;;;;11.26;66.42;97469.78;1085421;54;1344;-79
2023/11/02 05:09:13;;;;;;;;;;;;;;;11.28;66.32;97470.38;1085419;54;1177;-80
2023/11/02 05:10:13;;;;;;;;;;;;;;;11.28;66.59;97475.72;1084944;54;1150;-79
2023/11/02 05:11:19;;;;;;;;;;;;;;;11.30;66.26;97470.16;1085082;54;1195;-80
2023/11/02 05:12:20;;;;;;;;;;;;;;;11.30;66.77;97468.31;1085297;54;1158;-79
2023/11/02 05:13:23;;;;;;;;;;;;;;;11.32;66.73;97476.13;1085364;54;1130;-79
2023/11/02 05:14:24;;;;;;;;;;;;;;;11.31;66.72;97467.31;1085257;54;1164;-79
2023/11/02 05:15:28;;;;;;;;;;;;;;;11.31;66.61;97464.63;1085338;54;1120;-79
2023/11/02 05:16:29;;;;;;;;;;;;;;;11.26;66.71;97464.41;1085453;54;1082;-79
2023/11/02 05:17:32;;;;;;;;;;;;;;;11.27;66.97;97458.03;1085376;47;1297;-80
2023/11/02 05:18:33;;;;;;;;;;;;;;;11.29;66.77;97449.84;1085368;51;1206;-80
2023/11/02 05:19:37;;;;;;;;;;;;;;;11.28;66.66;97449.00;1085200;54;1901;-78
2023/11/02 05:20:38;;;;;;;;;;;;;;;11.30;66.58;97441.59;1085145;54;1157;-80
2023/11/02 05:21:39;;;;;;;;;;;;;;;11.31;66.52;97443.22;1085212;54;1138;-79
2023/11/02 05:22:42;;;;;;;;;;;;;;;11.31;66.68;97437.88;1085094;54;1173;-79
2023/11/02 05:23:42;;;;;;;;;;;;;;;11.32;66.74;97438.69;1085566;47;1068;-79
2023/11/02 05:24:46;;;;;;;;;;;;;;;11.33;66.56;97440.31;1085747;54;1113;-80
2023/11/02 05:25:46;;;;;;;;;;;;;;;11.35;66.69;97439.06;1084963;47;1038;-80
2023/11/02 05:26:52;;;;;;;;;;;;;;;11.37;66.72;97444.22;1084936;54;1078;-80
2023/11/02 05:27:53;;;;;;;;;;;;;;;11.37;66.35;97444.22;1085058;54;1749;-80
2023/11/02 05:28:56;;;;;;;;;;;;;;;11.39;66.43;97426.94;1084889;47;1309;-79
2023/11/02 05:29:57;;;;;;;;;;;;;;;11.22;69.16;97423.91;1085324;54;1449;-79
2023/11/02 05:31:00;;;;;;;;;;;;;;;11.11;69.68;97410.41;1085072;54;1129;-79
2023/11/02 05:32:01;;;;;;;;;;;;;;;11.11;68.96;97410.41;1084717;47;1174;-80
2023/11/02 05:33:04;;;;;;;;;;;;;;;11.16;68.53;97407.91;1084212;54;1425;-80
2023/11/02 05:34:05;;;;;;;;;;;;;;;11.19;68.26;97413.63;1085284;54;1415;-79
2023/11/02 05:35:06;;;;;;;;;;;;;;;11.15;67.43;97400.91;1085184;47;1112;-79
2023/11/02 05:36:09;;;;;;;;;;;;;;;11.23;67.68;97409.53;1085018;54;1186;-80
2023/11/02 05:37:10;;;;;;;;;;;;;;;11.28;67.18;97422.25;1085083;47;1586;-79
2023/11/02 05:38:13;;;;;;;;;;;;;;;11.28;67.79;97432.13;1085378;54;1271;-79
2023/11/02 05:39:14;;;;;;;;;;;;;;;11.33;67.66;97433.16;1085281;54;1169;-80
2023/11/02 05:40:17;;;;;;;;;;;;;;;11.38;67.69;97429.81;1085059;47;1860;-79
2023/11/02 05:41:18;;;;;;;;;;;;;;;11.40;67.88;97443.78;1084836;47;1177;-79
2023/11/02 05:42:24;;;;;;;;;;;;;;;11.41;68.48;97437.41;1084849;54;1165;-79
2023/11/02 05:43:24;;;;;;;;;;;;;;;11.41;68.00;97440.06;1084829;47;1165;-79
2023/11/02 05:44:27;;;;;;;;;;;;;;;11.41;67.94;97440.06;1084880;54;2932;-80
2023/11/02 05:45:28;;;;;;;;;;;;;;;11.45;68.10;97432.44;1085190;54;1248;-80
2023/11/02 05:46:29;;;;;;;;;;;;;;;11.30;70.80;97416.69;1085722;47;1141;-80
2023/11/02 05:47:33;;;;;;;;;;;;;;;11.28;70.06;97416.09;1085189;47;1444;-79